TRA736 LFRS-LEBL
Flight info
| Callsign | TRA736 |
|---|---|
| Flight time | 1h 9m |
| Altitude | 25000 |
| Route | LUGEN UM184 TUPAR/N0458F330 DCT CNA DCT SECHE DCT AGN DCT TOU DCT LOMRA DCT ROCAN DCT PUMAL |
| Aircraft | B738/M-SDE2E3FGHIRWXY/LB1 |
Departure
| Time | 2026-05-04 21:33 |
|---|---|
| Airport | Nantes Atlantique Airport (LFRS) |
Arrival
| Time | 2026-05-04 22:42 |
|---|---|
| Airport | Josep Tarradellas Barcelona-El Prat Airport (LEBL) |
| Time | Latitude | Longitude | Altitude | Speed | Heading |
|---|---|---|---|---|---|
| 2026-05-04 21:16 | 47.15715 | -1.60268 | 69 ft | 0 kts | 44° |
| 2026-05-04 21:24 | 47.15699 | -1.60290 | 98 ft | 4 kts | 44° |
| 2026-05-04 21:24 | 47.15680 | -1.60318 | 97 ft | 4 kts | 54° |
| 2026-05-04 21:24 | 47.15672 | -1.60350 | 97 ft | 4 kts | 108° |
| 2026-05-04 21:24 | 47.15683 | -1.60375 | 98 ft | 1 kts | 138° |
| 2026-05-04 21:27 | 47.15671 | -1.60360 | 100 ft | 11 kts | 138° |
| 2026-05-04 21:27 | 47.15571 | -1.60281 | 99 ft | 18 kts | 194° |
| 2026-05-04 21:27 | 47.15532 | -1.60428 | 97 ft | 18 kts | 300° |
| 2026-05-04 21:28 | 47.15584 | -1.60577 | 99 ft | 16 kts | 257° |
| 2026-05-04 21:28 | 47.15497 | -1.60670 | 99 ft | 17 kts | 208° |
| 2026-05-04 21:28 | 47.15391 | -1.60750 | 96 ft | 17 kts | 207° |
| 2026-05-04 21:28 | 47.15289 | -1.60828 | 97 ft | 16 kts | 207° |
| 2026-05-04 21:29 | 47.15191 | -1.60902 | 98 ft | 16 kts | 207° |
| 2026-05-04 21:29 | 47.15097 | -1.60974 | 97 ft | 15 kts | 207° |
| 2026-05-04 21:29 | 47.15002 | -1.61046 | 95 ft | 16 kts | 207° |
| 2026-05-04 21:29 | 47.14907 | -1.61119 | 96 ft | 15 kts | 207° |
| 2026-05-04 21:30 | 47.14817 | -1.61188 | 95 ft | 15 kts | 207° |
| 2026-05-04 21:30 | 47.14726 | -1.61256 | 97 ft | 14 kts | 207° |
| 2026-05-04 21:30 | 47.14638 | -1.61323 | 93 ft | 17 kts | 207° |
| 2026-05-04 21:30 | 47.14483 | -1.61442 | 90 ft | 27 kts | 207° |
| 2026-05-04 21:31 | 47.14175 | -1.61690 | 82 ft | 23 kts | 230° |
| 2026-05-04 21:31 | 47.14142 | -1.61862 | 82 ft | 17 kts | 284° |
| 2026-05-04 21:31 | 47.14192 | -1.61929 | 80 ft | 9 kts | 9° |
| 2026-05-04 21:32 | 47.14217 | -1.61911 | 83 ft | 1 kts | 28° |
| 2026-05-04 21:32 | 47.14349 | -1.61811 | 88 ft | 55 kts | 27° |
| 2026-05-04 21:32 | 47.14913 | -1.61382 | 95 ft | 126 kts | 27° |
| 2026-05-04 21:32 | 47.15848 | -1.60703 | 362 ft | 159 kts | 26° |
| 2026-05-04 21:33 | 47.16818 | -1.59969 | 1191 ft | 160 kts | 29° |
| 2026-05-04 21:33 | 47.17574 | -1.58731 | 1894 ft | 175 kts | 65° |
| 2026-05-04 21:33 | 47.17572 | -1.56852 | 2235 ft | 210 kts | 112° |
| 2026-05-04 21:33 | 47.16512 | -1.55212 | 2482 ft | 237 kts | 155° |
| 2026-05-04 21:34 | 47.14888 | -1.54373 | 2757 ft | 259 kts | 161° |
| 2026-05-04 21:34 | 47.13160 | -1.53400 | 3371 ft | 271 kts | 158° |
| 2026-05-04 21:34 | 47.11432 | -1.52281 | 4328 ft | 272 kts | 156° |
| 2026-05-04 21:34 | 47.09724 | -1.51094 | 5289 ft | 272 kts | 154° |
| 2026-05-04 21:35 | 47.08018 | -1.49876 | 6203 ft | 274 kts | 154° |
| 2026-05-04 21:35 | 47.06366 | -1.48528 | 7041 ft | 277 kts | 143° |
| 2026-05-04 21:35 | 47.04883 | -1.46723 | 7938 ft | 277 kts | 137° |
| 2026-05-04 21:35 | 47.03471 | -1.44820 | 8825 ft | 279 kts | 136° |
| 2026-05-04 21:36 | 47.02039 | -1.42871 | 9724 ft | 281 kts | 136° |
| 2026-05-04 21:36 | 47.00585 | -1.40909 | 10426 ft | 289 kts | 136° |
| 2026-05-04 21:36 | 46.99036 | -1.38840 | 10626 ft | 314 kts | 137° |
| 2026-05-04 21:36 | 46.97358 | -1.36622 | 10824 ft | 336 kts | 137° |
| 2026-05-04 21:37 | 46.95573 | -1.34278 | 11135 ft | 353 kts | 137° |
| 2026-05-04 21:37 | 46.93729 | -1.31873 | 11852 ft | 356 kts | 138° |
| 2026-05-04 21:37 | 46.91892 | -1.29483 | 12560 ft | 361 kts | 138° |
| 2026-05-04 21:37 | 46.90007 | -1.27035 | 13311 ft | 364 kts | 138° |
| 2026-05-04 21:38 | 46.88103 | -1.24562 | 14067 ft | 368 kts | 138° |
| 2026-05-04 21:38 | 46.86185 | -1.22076 | 14854 ft | 369 kts | 139° |
| 2026-05-04 21:38 | 46.84255 | -1.19577 | 15615 ft | 372 kts | 139° |
| 2026-05-04 21:38 | 46.82307 | -1.17054 | 16299 ft | 378 kts | 139° |
| 2026-05-04 21:39 | 46.80323 | -1.14487 | 16921 ft | 384 kts | 139° |
| 2026-05-04 21:39 | 46.78319 | -1.11892 | 17639 ft | 387 kts | 140° |
| 2026-05-04 21:39 | 46.76323 | -1.09310 | 18381 ft | 389 kts | 140° |
| 2026-05-04 21:39 | 46.74290 | -1.06681 | 18992 ft | 393 kts | 140° |
| 2026-05-04 21:40 | 46.72236 | -1.04029 | 19588 ft | 396 kts | 140° |
| 2026-05-04 21:40 | 46.70162 | -1.01353 | 20193 ft | 399 kts | 140° |
| 2026-05-04 21:40 | 46.68074 | -0.98663 | 20823 ft | 402 kts | 140° |
| 2026-05-04 21:40 | 46.65976 | -0.95962 | 21446 ft | 404 kts | 140° |
| 2026-05-04 21:41 | 46.63868 | -0.93250 | 22042 ft | 406 kts | 140° |
| 2026-05-04 21:41 | 46.61745 | -0.90521 | 22633 ft | 408 kts | 140° |
| 2026-05-04 21:41 | 46.59608 | -0.87780 | 23206 ft | 411 kts | 140° |
| 2026-05-04 21:41 | 46.57487 | -0.85061 | 23720 ft | 413 kts | 140° |
| 2026-05-04 21:42 | 46.55334 | -0.82289 | 24209 ft | 415 kts | 140° |
| 2026-05-04 21:42 | 46.53176 | -0.79507 | 24752 ft | 413 kts | 141° |
| 2026-05-04 21:42 | 46.51051 | -0.76766 | 25533 ft | 407 kts | 141° |
| 2026-05-04 21:42 | 46.48927 | -0.74033 | 25949 ft | 410 kts | 141° |
| 2026-05-04 21:43 | 46.46780 | -0.71278 | 26268 ft | 414 kts | 142° |
| 2026-05-04 21:43 | 46.44577 | -0.68577 | 26663 ft | 414 kts | 147° |
| 2026-05-04 21:43 | 46.42142 | -0.66366 | 27106 ft | 412 kts | 154° |
| 2026-05-04 21:43 | 46.39573 | -0.64667 | 27541 ft | 411 kts | 162° |
| 2026-05-04 21:44 | 46.36850 | -0.63405 | 27945 ft | 412 kts | 164° |
| 2026-05-04 21:44 | 46.34105 | -0.62171 | 28307 ft | 414 kts | 164° |
| 2026-05-04 21:44 | 46.31347 | -0.60930 | 28656 ft | 416 kts | 164° |
| 2026-05-04 21:44 | 46.28585 | -0.59678 | 29117 ft | 415 kts | 164° |
| 2026-05-04 21:45 | 46.25843 | -0.58428 | 29734 ft | 411 kts | 164° |
| 2026-05-04 21:45 | 46.23129 | -0.57184 | 30326 ft | 407 kts | 164° |
| 2026-05-04 21:45 | 46.20432 | -0.55947 | 30688 ft | 407 kts | 164° |
| 2026-05-04 21:45 | 46.17758 | -0.54721 | 30899 ft | 411 kts | 164° |
| 2026-05-04 21:46 | 46.15025 | -0.53468 | 31180 ft | 413 kts | 164° |
| 2026-05-04 21:46 | 46.12284 | -0.52213 | 31484 ft | 414 kts | 164° |
| 2026-05-04 21:46 | 46.09538 | -0.50956 | 31840 ft | 414 kts | 164° |
| 2026-05-04 21:46 | 46.06789 | -0.49698 | 32177 ft | 415 kts | 164° |
| 2026-05-04 21:47 | 46.04038 | -0.48442 | 32451 ft | 416 kts | 164° |
| 2026-05-04 21:47 | 46.01268 | -0.47178 | 32709 ft | 418 kts | 164° |
| 2026-05-04 21:47 | 45.98488 | -0.45912 | 32978 ft | 420 kts | 164° |
| 2026-05-04 21:48 | 45.92905 | -0.43372 | 32960 ft | 425 kts | 164° |
| 2026-05-04 21:48 | 45.87310 | -0.40829 | 32957 ft | 419 kts | 164° |
| 2026-05-04 21:49 | 45.81761 | -0.38315 | 32976 ft | 418 kts | 164° |
| 2026-05-04 21:49 | 45.76208 | -0.35804 | 32970 ft | 419 kts | 164° |
| 2026-05-04 21:50 | 45.70684 | -0.33310 | 32973 ft | 419 kts | 164° |
| 2026-05-04 21:50 | 45.65136 | -0.30698 | 32962 ft | 422 kts | 159° |
| 2026-05-04 21:51 | 45.59823 | -0.27087 | 32967 ft | 423 kts | 156° |
| 2026-05-04 21:51 | 45.54546 | -0.23346 | 32967 ft | 424 kts | 156° |
| 2026-05-04 21:52 | 45.49281 | -0.19662 | 32972 ft | 425 kts | 156° |
| 2026-05-04 21:52 | 45.43963 | -0.15987 | 32975 ft | 425 kts | 157° |
| 2026-05-04 21:53 | 45.38631 | -0.12323 | 32973 ft | 426 kts | 157° |
| 2026-05-04 21:53 | 45.33296 | -0.08668 | 32977 ft | 426 kts | 157° |
| 2026-05-04 21:54 | 45.27987 | -0.05037 | 32981 ft | 427 kts | 157° |
| 2026-05-04 21:54 | 45.22634 | -0.01384 | 32983 ft | 427 kts | 157° |
| 2026-05-04 21:55 | 45.17284 | 0.02261 | 32965 ft | 426 kts | 157° |
| 2026-05-04 21:55 | 45.11951 | 0.05887 | 32977 ft | 425 kts | 157° |
| 2026-05-04 21:56 | 45.06659 | 0.09477 | 32980 ft | 424 kts | 157° |
| 2026-05-04 21:56 | 45.01340 | 0.13077 | 32981 ft | 423 kts | 157° |
| 2026-05-04 21:57 | 44.96029 | 0.16665 | 32969 ft | 423 kts | 158° |
| 2026-05-04 21:57 | 44.90721 | 0.20244 | 32974 ft | 423 kts | 158° |
| 2026-05-04 21:58 | 44.85438 | 0.23797 | 32976 ft | 424 kts | 158° |
| 2026-05-04 21:58 | 44.80110 | 0.27374 | 32970 ft | 424 kts | 158° |
| 2026-05-04 21:59 | 44.74777 | 0.30948 | 32973 ft | 425 kts | 158° |
| 2026-05-04 21:59 | 44.69438 | 0.34518 | 32976 ft | 425 kts | 158° |
| 2026-05-04 22:00 | 44.64128 | 0.38062 | 32971 ft | 426 kts | 158° |
| 2026-05-04 22:00 | 44.58785 | 0.41622 | 32967 ft | 425 kts | 158° |
| 2026-05-04 22:01 | 44.53446 | 0.45170 | 32982 ft | 424 kts | 158° |
| 2026-05-04 22:01 | 44.48155 | 0.48681 | 32982 ft | 424 kts | 158° |
| 2026-05-04 22:02 | 44.42829 | 0.52204 | 32991 ft | 423 kts | 158° |
| 2026-05-04 22:02 | 44.37502 | 0.55696 | 32987 ft | 423 kts | 158° |
| 2026-05-04 22:03 | 44.32171 | 0.59178 | 32996 ft | 423 kts | 158° |
| 2026-05-04 22:03 | 44.26868 | 0.62638 | 32992 ft | 424 kts | 158° |
| 2026-05-04 22:04 | 44.21513 | 0.66127 | 32990 ft | 425 kts | 158° |
| 2026-05-04 22:04 | 44.16151 | 0.69615 | 32995 ft | 426 kts | 159° |
| 2026-05-04 22:05 | 44.10776 | 0.73104 | 32997 ft | 427 kts | 159° |
| 2026-05-04 22:05 | 44.05428 | 0.76569 | 32972 ft | 427 kts | 159° |
| 2026-05-04 22:06 | 44.00040 | 0.80054 | 32990 ft | 427 kts | 159° |
| 2026-05-04 22:06 | 43.94647 | 0.83533 | 32998 ft | 428 kts | 159° |
| 2026-05-04 22:07 | 43.89523 | 0.87802 | 33005 ft | 437 kts | 144° |
| 2026-05-04 22:07 | 43.85436 | 0.94137 | 32996 ft | 448 kts | 128° |
| 2026-05-04 22:08 | 43.82087 | 1.01356 | 32976 ft | 449 kts | 127° |
| 2026-05-04 22:08 | 43.78713 | 1.08638 | 32991 ft | 449 kts | 128° |
| 2026-05-04 22:09 | 43.75304 | 1.15862 | 32976 ft | 450 kts | 128° |
| 2026-05-04 22:09 | 43.71864 | 1.23097 | 32994 ft | 450 kts | 128° |
| 2026-05-04 22:10 | 43.68417 | 1.30329 | 32994 ft | 451 kts | 129° |
| 2026-05-04 22:10 | 43.64687 | 1.37145 | 33000 ft | 447 kts | 134° |
| 2026-05-04 22:11 | 43.60727 | 1.43746 | 32981 ft | 447 kts | 134° |
| 2026-05-04 22:11 | 43.56782 | 1.50367 | 33002 ft | 447 kts | 134° |
| 2026-05-04 22:12 | 43.52880 | 1.56995 | 32993 ft | 448 kts | 134° |
| 2026-05-04 22:12 | 43.48957 | 1.63672 | 32997 ft | 449 kts | 134° |
| 2026-05-04 22:13 | 43.45023 | 1.70349 | 32997 ft | 449 kts | 134° |
| 2026-05-04 22:13 | 43.41081 | 1.77024 | 32981 ft | 450 kts | 134° |
| 2026-05-04 22:14 | 43.37121 | 1.83682 | 32990 ft | 449 kts | 136° |
| 2026-05-04 22:14 | 43.34829 | 1.86410 | 32993 ft | 438 kts | 153° |
| 2026-05-04 22:14 | 43.32098 | 1.88175 | 32993 ft | 431 kts | 166° |
| 2026-05-04 22:14 | 43.29189 | 1.88989 | 32997 ft | 425 kts | 178° |
| 2026-05-04 22:15 | 43.26243 | 1.89264 | 33003 ft | 425 kts | 179° |
| 2026-05-04 22:15 | 43.20333 | 1.89721 | 32989 ft | 426 kts | 180° |
| 2026-05-04 22:16 | 43.14441 | 1.90222 | 33007 ft | 428 kts | 179° |
| 2026-05-04 22:16 | 43.08498 | 1.90777 | 33012 ft | 429 kts | 179° |
| 2026-05-04 22:17 | 43.02548 | 1.91346 | 32999 ft | 429 kts | 179° |
| 2026-05-04 22:17 | 42.96591 | 1.91918 | 32995 ft | 429 kts | 179° |
| 2026-05-04 22:18 | 42.90627 | 1.92487 | 33006 ft | 430 kts | 179° |
| 2026-05-04 22:18 | 42.84693 | 1.93051 | 33008 ft | 431 kts | 179° |
| 2026-05-04 22:19 | 42.78710 | 1.93619 | 33010 ft | 431 kts | 179° |
| 2026-05-04 22:19 | 42.72719 | 1.94187 | 33001 ft | 432 kts | 179° |
| 2026-05-04 22:20 | 42.66736 | 1.94780 | 32888 ft | 425 kts | 177° |
| 2026-05-04 22:20 | 42.63831 | 1.95277 | 32166 ft | 417 kts | 175° |
| 2026-05-04 22:20 | 42.60957 | 1.95863 | 30966 ft | 420 kts | 174° |
| 2026-05-04 22:20 | 42.58048 | 1.96483 | 29525 ft | 426 kts | 174° |
| 2026-05-04 22:21 | 42.55148 | 1.97079 | 28317 ft | 424 kts | 175° |
| 2026-05-04 22:21 | 42.52313 | 1.97543 | 28143 ft | 403 kts | 176° |
| 2026-05-04 22:21 | 42.49502 | 1.97938 | 27878 ft | 409 kts | 177° |
| 2026-05-04 22:21 | 42.46656 | 1.98321 | 27608 ft | 415 kts | 177° |
| 2026-05-04 22:22 | 42.43759 | 1.98715 | 27341 ft | 420 kts | 177° |
| 2026-05-04 22:22 | 42.40834 | 1.99124 | 27080 ft | 425 kts | 176° |
| 2026-05-04 22:22 | 42.37882 | 1.99548 | 26810 ft | 428 kts | 176° |
| 2026-05-04 22:22 | 42.34926 | 1.99882 | 26541 ft | 425 kts | 182° |
| 2026-05-04 22:23 | 42.31997 | 1.99567 | 26281 ft | 421 kts | 192° |
| 2026-05-04 22:23 | 42.29146 | 1.98870 | 26057 ft | 425 kts | 192° |
| 2026-05-04 22:23 | 42.26247 | 1.98167 | 25512 ft | 422 kts | 192° |
| 2026-05-04 22:23 | 42.23414 | 1.97483 | 25353 ft | 406 kts | 192° |
| 2026-05-04 22:24 | 42.20629 | 1.96844 | 25088 ft | 407 kts | 191° |
| 2026-05-04 22:24 | 42.17804 | 1.96214 | 24844 ft | 415 kts | 191° |
| 2026-05-04 22:24 | 42.14959 | 1.95585 | 24598 ft | 413 kts | 191° |
| 2026-05-04 22:24 | 42.12131 | 1.94960 | 24363 ft | 410 kts | 191° |
| 2026-05-04 22:25 | 42.09317 | 1.94336 | 24127 ft | 409 kts | 191° |
| 2026-05-04 22:25 | 42.06507 | 1.93709 | 23901 ft | 409 kts | 191° |
| 2026-05-04 22:25 | 42.03703 | 1.93081 | 23671 ft | 408 kts | 191° |
| 2026-05-04 22:25 | 42.00907 | 1.92454 | 23347 ft | 406 kts | 191° |
| 2026-05-04 22:26 | 41.98175 | 1.91843 | 22715 ft | 400 kts | 191° |
| 2026-05-04 22:26 | 41.95451 | 1.91235 | 22103 ft | 394 kts | 192° |
| 2026-05-04 22:26 | 41.92763 | 1.90636 | 21519 ft | 389 kts | 192° |
| 2026-05-04 22:26 | 41.90104 | 1.90042 | 20900 ft | 386 kts | 192° |
| 2026-05-04 22:27 | 41.87464 | 1.89453 | 20314 ft | 383 kts | 192° |
| 2026-05-04 22:27 | 41.84850 | 1.88869 | 19736 ft | 380 kts | 192° |
| 2026-05-04 22:27 | 41.82250 | 1.88289 | 19116 ft | 378 kts | 192° |
| 2026-05-04 22:27 | 41.79666 | 1.87714 | 18563 ft | 375 kts | 192° |
| 2026-05-04 22:28 | 41.77095 | 1.87141 | 17928 ft | 374 kts | 192° |
| 2026-05-04 22:28 | 41.74537 | 1.86572 | 17317 ft | 370 kts | 192° |
| 2026-05-04 22:28 | 41.72046 | 1.86019 | 16761 ft | 367 kts | 192° |
| 2026-05-04 22:28 | 41.69542 | 1.85464 | 16190 ft | 363 kts | 192° |
| 2026-05-04 22:29 | 41.67055 | 1.84913 | 15632 ft | 361 kts | 192° |
| 2026-05-04 22:29 | 41.64587 | 1.84365 | 15079 ft | 358 kts | 192° |
| 2026-05-04 22:29 | 41.62133 | 1.83822 | 14533 ft | 356 kts | 192° |
| 2026-05-04 22:29 | 41.59697 | 1.83283 | 14000 ft | 355 kts | 192° |
| 2026-05-04 22:30 | 41.57263 | 1.82743 | 13380 ft | 354 kts | 192° |
| 2026-05-04 22:30 | 41.55659 | 1.82389 | 12997 ft | 352 kts | 192° |
| 2026-05-04 22:30 | 41.53247 | 1.81857 | 12419 ft | 350 kts | 192° |
| 2026-05-04 22:30 | 41.50076 | 1.81157 | 11678 ft | 347 kts | 192° |
| 2026-05-04 22:31 | 41.47696 | 1.80633 | 11119 ft | 346 kts | 192° |
| 2026-05-04 22:31 | 41.45345 | 1.80134 | 10821 ft | 337 kts | 190° |
| 2026-05-04 22:31 | 41.43000 | 1.80161 | 10442 ft | 337 kts | 174° |
| 2026-05-04 22:31 | 41.41494 | 1.80606 | 10290 ft | 333 kts | 168° |
| 2026-05-04 22:32 | 41.39305 | 1.81420 | 10139 ft | 321 kts | 168° |
| 2026-05-04 22:32 | 41.37183 | 1.82193 | 9989 ft | 311 kts | 168° |
| 2026-05-04 22:32 | 41.35126 | 1.82931 | 9917 ft | 299 kts | 168° |
| 2026-05-04 22:32 | 41.33161 | 1.83629 | 9893 ft | 286 kts | 169° |
| 2026-05-04 22:33 | 41.31269 | 1.84297 | 9727 ft | 279 kts | 169° |
| 2026-05-04 22:33 | 41.29395 | 1.84952 | 9411 ft | 278 kts | 169° |
| 2026-05-04 22:33 | 41.26917 | 1.85815 | 8998 ft | 278 kts | 169° |
| 2026-05-04 22:33 | 41.25053 | 1.86463 | 8699 ft | 277 kts | 169° |
| 2026-05-04 22:34 | 41.23799 | 1.86902 | 8499 ft | 276 kts | 169° |
| 2026-05-04 22:34 | 41.21964 | 1.87541 | 8192 ft | 276 kts | 169° |
| 2026-05-04 22:34 | 41.20113 | 1.88186 | 7904 ft | 274 kts | 169° |
| 2026-05-04 22:34 | 41.18269 | 1.88829 | 7610 ft | 273 kts | 169° |
| 2026-05-04 22:35 | 41.16448 | 1.89463 | 7218 ft | 270 kts | 169° |
| 2026-05-04 22:35 | 41.14632 | 1.90093 | 6739 ft | 270 kts | 169° |
| 2026-05-04 22:35 | 41.12814 | 1.90723 | 6299 ft | 269 kts | 170° |
| 2026-05-04 22:35 | 41.11002 | 1.90818 | 6008 ft | 253 kts | 195° |
| 2026-05-04 22:36 | 41.09313 | 1.90245 | 5741 ft | 254 kts | 192° |
| 2026-05-04 22:36 | 41.07538 | 1.90676 | 5368 ft | 270 kts | 153° |
| 2026-05-04 22:36 | 41.06241 | 1.92381 | 5243 ft | 257 kts | 122° |
| 2026-05-04 22:36 | 41.05650 | 1.94483 | 5117 ft | 240 kts | 98° |
| 2026-05-04 22:37 | 41.05780 | 1.96598 | 4766 ft | 230 kts | 63° |
| 2026-05-04 22:37 | 41.06806 | 1.98025 | 4526 ft | 208 kts | 23° |
| 2026-05-04 22:37 | 41.08078 | 1.98818 | 4265 ft | 198 kts | 21° |
| 2026-05-04 22:37 | 41.09318 | 1.99526 | 4004 ft | 190 kts | 17° |
| 2026-05-04 22:38 | 41.10539 | 2.00131 | 3769 ft | 185 kts | 15° |
| 2026-05-04 22:38 | 41.11749 | 2.00695 | 3534 ft | 183 kts | 14° |
| 2026-05-04 22:38 | 41.12925 | 2.01235 | 3295 ft | 180 kts | 14° |
| 2026-05-04 22:38 | 41.14100 | 2.01772 | 3065 ft | 178 kts | 14° |
| 2026-05-04 22:39 | 41.15264 | 2.02304 | 2823 ft | 176 kts | 14° |
| 2026-05-04 22:39 | 41.16417 | 2.02832 | 2594 ft | 174 kts | 14° |
| 2026-05-04 22:39 | 41.17562 | 2.03355 | 2369 ft | 173 kts | 14° |
| 2026-05-04 22:39 | 41.18701 | 2.03876 | 2134 ft | 173 kts | 14° |
| 2026-05-04 22:40 | 41.19835 | 2.04394 | 1902 ft | 173 kts | 14° |
| 2026-05-04 22:40 | 41.20953 | 2.04906 | 1681 ft | 165 kts | 14° |
| 2026-05-04 22:40 | 41.22000 | 2.05386 | 1459 ft | 159 kts | 14° |
| 2026-05-04 22:40 | 41.23028 | 2.05856 | 1280 ft | 151 kts | 14° |
| 2026-05-04 22:41 | 41.23986 | 2.06294 | 1055 ft | 143 kts | 14° |
| 2026-05-04 22:41 | 41.24922 | 2.06720 | 859 ft | 143 kts | 15° |
| 2026-05-04 22:41 | 41.25861 | 2.07145 | 670 ft | 142 kts | 15° |
| 2026-05-04 22:41 | 41.26787 | 2.07571 | 509 ft | 140 kts | 16° |
| 2026-05-04 22:42 | 41.27699 | 2.07991 | 231 ft | 138 kts | 17° |
| 2026-05-04 22:42 | 41.28595 | 2.08403 | 68 ft | 133 kts | 15° |
| 2026-05-04 22:42 | 41.29423 | 2.08775 | 17 ft | 107 kts | 19° |
| 2026-05-04 22:42 | 41.29925 | 2.09006 | 17 ft | 48 kts | 19° |
| 2026-05-04 22:43 | 41.30149 | 2.09108 | 17 ft | 32 kts | 18° |
| 2026-05-04 22:43 | 41.30341 | 2.09193 | 18 ft | 25 kts | 19° |
| 2026-05-04 22:43 | 41.30458 | 2.09248 | 19 ft | 15 kts | 20° |
| 2026-05-04 22:43 | 41.30554 | 2.09282 | 21 ft | 14 kts | 352° |
| 2026-05-04 22:44 | 41.30637 | 2.09213 | 18 ft | 15 kts | 317° |
| 2026-05-04 22:44 | 41.30669 | 2.09098 | 19 ft | 14 kts | 234° |
| 2026-05-04 22:44 | 41.30580 | 2.09045 | 17 ft | 14 kts | 199° |
| 2026-05-04 22:44 | 41.30489 | 2.09002 | 17 ft | 14 kts | 200° |
| 2026-05-04 22:45 | 41.30408 | 2.08949 | 18 ft | 13 kts | 226° |
| 2026-05-04 22:45 | 41.30332 | 2.08734 | 17 ft | 13 kts | 245° |
| 2026-05-04 22:45 | 41.30296 | 2.08628 | 18 ft | 12 kts | 246° |
| 2026-05-04 22:46 | 41.30260 | 2.08525 | 18 ft | 12 kts | 245° |
| 2026-05-04 22:46 | 41.30225 | 2.08425 | 17 ft | 12 kts | 246° |
| 2026-05-04 22:46 | 41.30192 | 2.08324 | 18 ft | 16 kts | 245° |
| 2026-05-04 22:46 | 41.30178 | 2.08185 | 19 ft | 15 kts | 319° |
| 2026-05-04 22:47 | 41.30266 | 2.08137 | 19 ft | 12 kts | 337° |
| 2026-05-04 22:47 | 41.30314 | 2.08084 | 20 ft | 6 kts | 293° |
| 2026-05-04 22:47 | 41.30319 | 2.08051 | 20 ft | 1 kts | 277° |